createdAt,value
2019-02-14T00:00:35.792Z,99.90
2019-02-14T00:03:05.185Z,99.90
2019-02-14T00:05:34.667Z,99.90
2019-02-14T00:08:04.076Z,99.90
2019-02-14T00:10:33.445Z,99.90
2019-02-14T00:13:02.880Z,99.90
2019-02-14T00:15:32.310Z,99.90
2019-02-14T00:18:01.712Z,99.90
2019-02-14T00:20:31.178Z,99.90
2019-02-14T00:23:00.601Z,99.90
2019-02-14T00:25:29.980Z,99.90
2019-02-14T00:27:59.306Z,99.90
2019-02-14T00:30:28.705Z,99.90
2019-02-14T00:32:58.045Z,99.90
2019-02-14T00:35:27.451Z,99.90
2019-02-14T00:37:56.850Z,99.90
2019-02-14T00:40:26.303Z,99.90
2019-02-14T00:42:55.772Z,99.90
2019-02-14T00:45:25.219Z,99.90
2019-02-14T00:47:54.582Z,99.90
2019-02-14T00:50:23.925Z,99.90
2019-02-14T00:52:53.304Z,99.90
2019-02-14T00:55:22.713Z,99.90
2019-02-14T00:57:52.160Z,99.90
2019-02-14T01:00:21.530Z,99.90
2019-02-14T01:02:50.910Z,99.90
2019-02-14T01:05:20.327Z,99.90
2019-02-14T01:07:49.792Z,99.90
2019-02-14T01:10:19.242Z,99.90
2019-02-14T01:12:48.597Z,99.90
2019-02-14T01:15:20.769Z,99.90
2019-02-14T01:17:50.194Z,99.90
2019-02-14T01:20:19.550Z,99.90
2019-02-14T01:22:48.964Z,99.90
2019-02-14T01:25:18.405Z,99.90
2019-02-14T01:27:47.873Z,99.90
2019-02-14T01:30:17.229Z,99.90
2019-02-14T01:32:46.648Z,99.90
2019-02-14T01:35:15.977Z,99.90
2019-02-14T01:37:45.325Z,99.90
2019-02-14T01:40:14.724Z,99.90
2019-02-14T01:42:44.206Z,99.90
2019-02-14T01:45:13.660Z,99.90
2019-02-14T01:47:43.095Z,99.90
2019-02-14T01:50:12.432Z,99.90
2019-02-14T01:52:41.797Z,99.90
2019-02-14T01:55:11.140Z,99.90
2019-02-14T01:57:40.560Z,99.90
2019-02-14T02:00:13.557Z,99.90
2019-02-14T02:02:42.947Z,99.90
2019-02-14T02:05:12.272Z,99.90
2019-02-14T02:07:41.708Z,99.90
2019-02-14T02:10:12.139Z,99.90
2019-02-14T02:12:41.556Z,99.90
2019-02-14T02:15:12.493Z,99.90
2019-02-14T02:17:41.932Z,99.90
2019-02-14T02:20:11.266Z,99.90
2019-02-14T02:22:40.773Z,99.90
2019-02-14T02:25:11.001Z,99.90
2019-02-14T02:27:40.438Z,99.90
2019-02-14T02:30:12.181Z,99.90
2019-02-14T02:32:41.649Z,99.90
2019-02-14T02:35:10.960Z,99.90
2019-02-14T02:37:40.332Z,99.90
2019-02-14T02:40:09.778Z,99.90
2019-02-14T02:42:39.272Z,99.90
2019-02-14T02:45:10.145Z,99.90
2019-02-14T02:47:39.541Z,99.90
2019-02-14T02:50:11.520Z,99.90
2019-02-14T02:52:40.940Z,99.90
2019-02-14T02:55:10.450Z,99.90
2019-02-14T02:57:39.943Z,99.90
2019-02-14T03:00:12.902Z,99.90
2019-02-14T03:02:42.331Z,99.90
2019-02-14T03:05:13.035Z,99.90
2019-02-14T03:07:42.418Z,99.90
2019-02-14T03:10:12.397Z,99.90
2019-02-14T03:12:41.846Z,99.90
2019-02-14T03:15:12.375Z,99.90
2019-02-14T03:17:41.802Z,99.90
2019-02-14T03:20:11.658Z,99.90
2019-02-14T03:22:41.022Z,99.90
2019-02-14T03:25:13.539Z,99.90
2019-02-14T03:27:42.926Z,99.90
2019-02-14T03:30:13.019Z,99.90
2019-02-14T03:32:42.388Z,99.90
2019-02-14T03:35:11.814Z,99.90
2019-02-14T03:37:41.199Z,99.90
2019-02-14T03:40:11.336Z,99.90
2019-02-14T03:42:40.815Z,99.90
2019-02-14T03:45:13.109Z,99.90
2019-02-14T03:47:42.501Z,99.90
2019-02-14T03:50:12.293Z,99.90
2019-02-14T03:52:41.678Z,99.90
2019-02-14T03:55:11.077Z,99.90
2019-02-14T03:57:40.482Z,99.90
2019-02-14T04:00:12.807Z,99.90
2019-02-14T04:02:42.161Z,99.90
2019-02-14T04:05:11.467Z,99.90
2019-02-14T04:07:40.996Z,99.90
2019-02-14T04:10:11.564Z,99.90
2019-02-14T04:12:41.041Z,99.90
2019-02-14T04:15:12.386Z,99.90
2019-02-14T04:17:41.761Z,99.90
2019-02-14T04:20:11.157Z,99.90
2019-02-14T04:22:40.686Z,99.90
2019-02-14T04:25:10.146Z,99.90
2019-02-14T04:27:39.553Z,99.90
2019-02-14T04:30:10.345Z,99.90
2019-02-14T04:32:39.691Z,99.90
2019-02-14T04:35:09.038Z,99.90
2019-02-14T04:37:38.421Z,99.90
2019-02-14T04:40:09.606Z,99.90
2019-02-14T04:42:39.094Z,99.90
2019-02-14T04:45:08.623Z,99.90
2019-02-14T04:47:38.093Z,99.90
2019-02-14T04:50:08.334Z,99.90
2019-02-14T04:52:37.698Z,99.90
2019-02-14T04:55:07.347Z,99.90
2019-02-14T04:57:36.797Z,99.90
2019-02-14T05:00:07.088Z,99.90
2019-02-14T05:02:36.587Z,99.90
2019-02-14T05:05:06.178Z,99.90
2019-02-14T05:07:35.615Z,99.90
2019-02-14T05:10:05.542Z,99.90
2019-02-14T05:12:34.918Z,99.90
2019-02-14T05:15:04.299Z,99.90
2019-02-14T05:17:33.940Z,99.90
2019-02-14T05:20:03.561Z,99.90
2019-02-14T05:22:32.997Z,99.90
2019-02-14T05:25:02.314Z,99.90
2019-02-14T05:27:31.707Z,99.90
2019-02-14T05:30:01.026Z,99.90
2019-02-14T05:32:30.501Z,99.90
2019-02-14T05:34:59.904Z,99.90
2019-02-14T05:37:29.338Z,99.90
2019-02-14T05:39:58.689Z,99.90
2019-02-14T05:42:28.114Z,99.90
2019-02-14T05:44:57.508Z,99.90
2019-02-14T05:47:26.965Z,99.90
2019-02-14T05:49:56.358Z,99.90
2019-02-14T05:52:25.736Z,99.90
2019-02-14T05:54:55.156Z,99.90
2019-02-14T05:57:24.568Z,99.90
2019-02-14T05:59:54.004Z,99.90
2019-02-14T06:02:23.467Z,99.90
2019-02-14T06:04:54.613Z,99.90
2019-02-14T06:07:24.038Z,99.90
2019-02-14T06:09:53.363Z,99.90
2019-02-14T06:12:22.849Z,99.90
2019-02-14T06:14:55.272Z,99.90
2019-02-14T06:17:24.743Z,99.90
2019-02-14T06:19:54.150Z,99.90
2019-02-14T06:22:23.615Z,99.90
2019-02-14T06:24:54.630Z,99.90
2019-02-14T06:27:24.083Z,99.90
2019-02-14T06:29:53.437Z,99.90
2019-02-14T06:32:22.877Z,99.90
2019-02-14T06:34:52.304Z,99.90
2019-02-14T06:37:22.012Z,99.90
2019-02-14T06:39:51.421Z,99.90
2019-02-14T06:42:20.834Z,99.90
2019-02-14T06:44:50.223Z,99.90
2019-02-14T06:47:19.653Z,99.90
2019-02-14T06:49:49.087Z,99.90
2019-02-14T06:52:18.593Z,99.90
2019-02-14T06:54:47.990Z,99.90
2019-02-14T06:57:17.354Z,99.90
2019-02-14T06:59:46.701Z,99.90
2019-02-14T07:02:16.105Z,99.90
2019-02-14T07:04:45.491Z,99.90
2019-02-14T07:07:18.589Z,99.90
2019-02-14T07:09:46.033Z,99.90
2019-02-14T07:12:15.517Z,99.90
2019-02-14T07:14:44.882Z,99.90
2019-02-14T07:17:14.346Z,99.90
2019-02-14T07:19:43.745Z,99.90
2019-02-14T07:22:13.138Z,99.90
2019-02-14T07:24:43.570Z,99.90
2019-02-14T07:27:12.910Z,99.90
2019-02-14T07:29:42.281Z,99.90
2019-02-14T07:32:11.613Z,99.90
2019-02-14T07:34:40.978Z,99.90
2019-02-14T07:37:10.397Z,99.90
2019-02-14T07:39:39.758Z,99.90
2019-02-14T07:42:09.124Z,99.90
2019-02-14T07:44:38.528Z,99.90
2019-02-14T07:47:07.942Z,99.90
2019-02-14T07:49:37.387Z,99.90
2019-02-14T07:52:06.883Z,99.90
2019-02-14T07:54:36.323Z,99.90
2019-02-14T07:57:05.731Z,99.90
2019-02-14T07:59:35.181Z,99.90
2019-02-14T08:02:04.506Z,99.90
2019-02-14T08:04:33.874Z,99.90
2019-02-14T08:07:03.248Z,99.90
2019-02-14T08:09:32.685Z,99.90
2019-02-14T08:12:02.081Z,99.90
2019-02-14T08:14:31.521Z,99.90
2019-02-14T08:17:00.845Z,99.90
2019-02-14T08:19:30.283Z,99.90
2019-02-14T08:21:59.696Z,99.90
2019-02-14T08:24:29.141Z,99.90
2019-02-14T08:26:58.543Z,99.90
2019-02-14T08:29:27.983Z,99.90
2019-02-14T08:31:57.400Z,99.90
2019-02-14T08:34:26.849Z,99.90
2019-02-14T08:36:56.259Z,99.90
2019-02-14T08:39:25.778Z,99.90
2019-02-14T08:41:55.157Z,99.90
2019-02-14T08:44:24.585Z,99.90
2019-02-14T08:46:54.009Z,99.90
2019-02-14T08:49:23.413Z,99.90
2019-02-14T08:51:52.853Z,99.90
2019-02-14T08:54:22.297Z,99.90
2019-02-14T08:56:51.701Z,99.90
2019-02-14T08:59:21.145Z,99.90
2019-02-14T09:01:50.583Z,99.90
2019-02-14T09:04:20.025Z,99.90
2019-02-14T09:06:49.450Z,99.90
2019-02-14T09:09:18.903Z,99.90
2019-02-14T09:11:48.257Z,99.90
2019-02-14T09:14:17.660Z,99.90
2019-02-14T09:16:47.334Z,99.90
2019-02-14T09:19:16.797Z,99.90
2019-02-14T09:21:46.221Z,99.90
2019-02-14T09:24:16.427Z,99.90
2019-02-14T09:26:45.780Z,99.90
2019-02-14T09:29:15.136Z,99.90
2019-02-14T09:31:44.461Z,99.90
2019-02-14T09:34:13.943Z,99.90
2019-02-14T09:36:43.361Z,99.90
2019-02-14T09:39:12.801Z,99.90
2019-02-14T09:41:42.202Z,99.90
2019-02-14T09:44:11.606Z,99.90
2019-02-14T09:46:41.260Z,99.90
2019-02-14T09:49:11.315Z,99.90
2019-02-14T09:51:40.734Z,99.90
2019-02-14T09:54:10.177Z,99.90
2019-02-14T09:56:39.590Z,99.90
2019-02-14T09:59:08.979Z,99.70
2019-02-14T10:01:38.395Z,99.90
2019-02-14T10:04:07.789Z,99.50
2019-02-14T10:06:37.209Z,99.20
2019-02-14T10:09:08.537Z,98.60
2019-02-14T10:11:37.951Z,99.40
2019-02-14T10:14:07.405Z,99.90
2019-02-14T10:16:36.862Z,99.90
2019-02-14T10:19:06.447Z,99.90
2019-02-14T10:21:35.857Z,99.90
2019-02-14T10:24:05.345Z,99.70
2019-02-14T10:26:34.737Z,97.90
2019-02-14T10:29:04.107Z,98.70
2019-02-14T10:31:33.445Z,97.00
2019-02-14T10:34:02.805Z,96.70
2019-02-14T10:36:32.238Z,97.40
2019-02-14T10:39:03.455Z,96.60
2019-02-14T10:41:32.809Z,96.10
2019-02-14T10:44:03.088Z,96.50
2019-02-14T10:46:32.486Z,97.00
2019-02-14T10:49:02.522Z,97.30
2019-02-14T10:51:31.849Z,97.70
2019-02-14T10:54:02.268Z,97.50
2019-02-14T10:56:31.703Z,97.50
2019-02-14T10:59:03.582Z,96.80
2019-02-14T11:01:32.895Z,97.10
2019-02-14T11:04:02.610Z,98.40
2019-02-14T11:06:32.005Z,97.50
2019-02-14T11:09:07.558Z,97.60
2019-02-14T11:11:36.986Z,97.40
2019-02-14T11:14:06.444Z,98.10
2019-02-14T11:16:35.795Z,96.90
2019-02-14T11:19:05.183Z,97.30
2019-02-14T11:21:34.606Z,96.70
2019-02-14T11:24:03.985Z,96.10
2019-02-14T11:26:33.307Z,97.10
2019-02-14T11:29:06.955Z,97.30
2019-02-14T11:31:36.351Z,98.10
2019-02-14T11:34:05.796Z,96.40
2019-02-14T11:36:35.191Z,95.70
2019-02-14T11:39:06.777Z,96.00
2019-02-14T11:41:36.103Z,96.80
2019-02-14T11:44:05.521Z,96.40
2019-02-14T11:46:34.845Z,97.80
2019-02-14T11:49:04.219Z,97.30
2019-02-14T11:51:33.542Z,94.10
2019-02-14T11:54:02.897Z,91.30
2019-02-14T11:56:32.307Z,91.40
2019-02-14T11:59:07.169Z,92.20
2019-02-14T12:01:36.497Z,94.00
2019-02-14T12:04:05.877Z,90.40
2019-02-14T12:06:35.307Z,91.30
2019-02-14T12:09:05.837Z,93.50
2019-02-14T12:11:35.190Z,94.80
2019-02-14T12:14:04.652Z,96.00
2019-02-14T12:16:34.084Z,95.70
2019-02-14T12:19:03.549Z,95.70
2019-02-14T12:21:32.959Z,96.50
2019-02-14T12:24:02.413Z,97.30
2019-02-14T12:26:31.810Z,96.80
2019-02-14T12:29:02.769Z,97.40
2019-02-14T12:31:32.069Z,97.80
2019-02-14T12:34:02.397Z,97.80
2019-02-14T12:36:31.729Z,98.30
2019-02-14T12:39:08.550Z,97.90
2019-02-14T12:41:33.409Z,98.70
2019-02-14T12:44:03.347Z,98.60
2019-02-14T12:46:32.753Z,99.40
2019-02-14T12:49:02.297Z,98.80
2019-02-14T12:51:31.695Z,99.30
2019-02-14T12:54:02.343Z,99.90
2019-02-14T12:56:31.741Z,99.90
2019-02-14T12:59:02.262Z,99.90
2019-02-14T13:01:31.577Z,99.90
2019-02-14T13:04:02.325Z,99.90
2019-02-14T13:06:31.728Z,99.90
2019-02-14T13:09:02.876Z,99.90
2019-02-14T13:11:32.251Z,99.90
2019-02-14T13:14:03.387Z,99.90
2019-02-14T13:16:32.770Z,99.90
2019-02-14T13:19:02.522Z,99.90
2019-02-14T13:21:31.914Z,99.90
2019-02-14T13:24:02.323Z,99.90
2019-02-14T13:26:31.642Z,98.40
2019-02-14T13:29:00.974Z,97.10
2019-02-14T13:31:32.408Z,96.20
2019-02-14T13:34:01.495Z,94.10
2019-02-14T13:36:30.935Z,94.90
2019-02-14T13:39:00.301Z,94.40
2019-02-14T13:41:31.379Z,92.80
2019-02-14T13:44:00.953Z,92.80
2019-02-14T13:46:30.428Z,92.30
2019-02-14T13:48:59.831Z,93.50
2019-02-14T13:51:29.246Z,94.70
2019-02-14T13:53:58.952Z,93.80
2019-02-14T13:56:28.323Z,94.70
2019-02-14T13:58:57.761Z,94.40
2019-02-14T14:01:27.198Z,94.50
2019-02-14T14:03:56.578Z,93.60
2019-02-14T14:06:26.022Z,93.50
2019-02-14T14:08:55.334Z,94.20
2019-02-14T14:11:24.774Z,93.60
2019-02-14T14:13:54.162Z,93.90
2019-02-14T14:16:23.536Z,94.10
2019-02-14T14:18:52.940Z,93.10
2019-02-14T14:21:22.362Z,94.10
2019-02-14T14:23:51.680Z,94.90
2019-02-14T14:26:21.147Z,95.70
2019-02-14T14:28:50.520Z,96.30
2019-02-14T14:31:19.962Z,97.80
2019-02-14T14:33:49.298Z,97.80
2019-02-14T14:36:18.746Z,98.40
2019-02-14T14:38:48.098Z,98.90
2019-02-14T14:41:17.484Z,99.40
2019-02-14T14:44:24.372Z,98.50
2019-02-14T14:47:12.700Z,99.00
2019-02-14T14:49:42.130Z,99.60
2019-02-14T14:52:11.485Z,99.90
2019-02-14T14:54:40.838Z,99.50
2019-02-14T14:57:10.200Z,99.90
2019-02-14T14:59:39.647Z,99.90
2019-02-14T15:02:09.043Z,99.90
2019-02-14T15:04:38.478Z,99.90
2019-02-14T15:07:07.871Z,99.90
2019-02-14T15:09:37.242Z,99.90
2019-02-14T15:12:06.587Z,99.90
2019-02-14T15:14:36.046Z,99.90
2019-02-14T15:17:05.382Z,99.90
2019-02-14T15:19:34.757Z,99.90
2019-02-14T15:22:04.173Z,99.90
2019-02-14T15:24:33.562Z,99.90
2019-02-14T15:27:02.873Z,99.90
2019-02-14T15:29:33.178Z,99.90
2019-02-14T15:32:03.110Z,99.90
2019-02-14T15:34:32.434Z,99.90
2019-02-14T15:37:03.140Z,99.90
2019-02-14T15:39:32.466Z,99.90
2019-02-14T15:42:02.353Z,99.90
2019-02-14T15:44:31.750Z,99.90
2019-02-14T15:47:02.389Z,99.90
2019-02-14T15:49:31.793Z,99.90
2019-02-14T15:52:03.852Z,99.90
2019-02-14T15:54:35.192Z,99.90
2019-02-14T15:57:04.616Z,99.90
2019-02-14T15:59:33.934Z,99.90
2019-02-14T16:02:03.877Z,99.90
2019-02-14T16:04:34.329Z,99.90
2019-02-14T16:07:03.770Z,99.90
2019-02-14T16:09:33.105Z,99.90
2019-02-14T16:12:02.772Z,99.90
2019-02-14T16:14:32.143Z,99.90
2019-02-14T16:17:03.438Z,99.90
2019-02-14T16:19:34.488Z,99.90
2019-02-14T16:22:03.944Z,99.90
2019-02-14T16:24:33.384Z,99.90
2019-02-14T16:27:03.335Z,99.90
2019-02-14T16:29:32.843Z,99.90
2019-02-14T16:32:07.856Z,99.90
2019-02-14T16:34:37.201Z,99.90
2019-02-14T16:37:06.747Z,99.90
2019-02-14T16:39:36.092Z,99.90
2019-02-14T16:42:05.482Z,99.90
2019-02-14T16:44:34.902Z,99.90
2019-02-14T16:47:04.248Z,99.90
2019-02-14T16:49:33.578Z,99.90
2019-02-14T16:52:02.938Z,99.90
2019-02-14T16:54:32.240Z,99.90
2019-02-14T16:57:05.017Z,99.90
2019-02-14T16:59:34.407Z,99.90
2019-02-14T17:02:03.774Z,99.90
2019-02-14T17:04:33.108Z,99.90
2019-02-14T17:07:03.050Z,99.90
2019-02-14T17:09:32.465Z,99.90
2019-02-14T17:12:02.365Z,99.90
2019-02-14T17:14:31.756Z,99.90
2019-02-14T17:17:03.435Z,99.90
2019-02-14T17:19:32.829Z,99.90
2019-02-14T17:22:03.042Z,99.90
2019-02-14T17:24:32.389Z,99.90
2019-02-14T17:27:03.203Z,99.90
2019-02-14T17:29:32.529Z,99.90
2019-02-14T17:32:02.297Z,99.90
2019-02-14T17:34:31.694Z,99.90
2019-02-14T17:37:02.324Z,99.90
2019-02-14T17:39:31.737Z,99.90
2019-02-14T17:42:02.370Z,99.90
2019-02-14T17:44:31.832Z,99.90
2019-02-14T17:47:02.290Z,99.90
2019-02-14T17:49:31.781Z,99.90
2019-02-14T17:52:02.440Z,99.90
2019-02-14T17:54:31.851Z,99.90
2019-02-14T17:57:02.468Z,99.90
2019-02-14T17:59:31.894Z,99.90
2019-02-14T18:02:02.522Z,99.90
2019-02-14T18:04:31.884Z,99.90
2019-02-14T18:07:03.155Z,99.90
2019-02-14T18:09:32.472Z,99.90
2019-02-14T18:12:03.399Z,99.90
2019-02-14T18:14:32.819Z,99.90
2019-02-14T18:17:03.336Z,98.70
2019-02-14T18:19:32.732Z,99.90
2019-02-14T18:22:02.453Z,99.90
2019-02-14T18:24:31.892Z,99.90
2019-02-14T18:27:02.427Z,99.90
2019-02-14T18:29:31.830Z,99.90
2019-02-14T18:32:02.962Z,99.90
2019-02-14T18:34:32.320Z,99.90
2019-02-14T18:37:02.318Z,99.90
2019-02-14T18:39:31.723Z,99.90
2019-02-14T18:42:06.266Z,99.90
2019-02-14T18:44:35.753Z,99.90
2019-02-14T18:47:05.133Z,99.90
2019-02-14T18:49:34.465Z,99.90
2019-02-14T18:52:03.910Z,99.90
2019-02-14T18:54:33.225Z,99.90
2019-02-14T18:57:03.090Z,99.90
2019-02-14T18:59:32.489Z,99.90
2019-02-14T19:02:02.304Z,99.90
2019-02-14T19:04:31.718Z,99.90
2019-02-14T19:07:02.366Z,99.90
2019-02-14T19:09:31.748Z,99.90
2019-02-14T19:12:03.195Z,99.90
2019-02-14T19:14:32.593Z,99.90
2019-02-14T19:17:03.838Z,99.90
2019-02-14T19:19:33.243Z,99.90
2019-02-14T19:22:02.656Z,99.90
2019-02-14T19:24:32.037Z,99.90
2019-02-14T19:27:03.100Z,99.90
2019-02-14T19:29:32.525Z,99.90
2019-02-14T19:32:02.318Z,99.90
2019-02-14T19:34:31.718Z,99.90
2019-02-14T19:37:02.547Z,99.90
2019-02-14T19:39:31.980Z,99.90
2019-02-14T19:42:01.958Z,99.90
2019-02-14T19:44:31.345Z,99.90
2019-02-14T19:47:00.719Z,99.90
2019-02-14T19:49:30.141Z,99.90
2019-02-14T19:51:59.524Z,99.90
2019-02-14T19:54:28.938Z,99.90
2019-02-14T19:56:58.357Z,99.90
2019-02-14T19:59:27.741Z,99.90
2019-02-14T20:01:57.161Z,99.90
2019-02-14T20:04:26.644Z,99.90
2019-02-14T20:06:55.999Z,99.90
2019-02-14T20:09:25.446Z,99.90
2019-02-14T20:11:54.750Z,99.90
2019-02-14T20:14:24.119Z,99.90
2019-02-14T20:16:53.539Z,99.90
2019-02-14T20:19:22.982Z,99.90
2019-02-14T20:21:52.316Z,99.90
2019-02-14T20:24:21.715Z,99.90
2019-02-14T20:26:51.099Z,99.90
2019-02-14T20:29:20.467Z,99.90
2019-02-14T20:31:49.874Z,99.90
2019-02-14T20:34:19.349Z,99.90
2019-02-14T20:36:48.684Z,99.90
2019-02-14T20:39:18.098Z,99.90
2019-02-14T20:41:47.456Z,99.90
2019-02-14T20:44:16.937Z,99.90
2019-02-14T20:46:46.373Z,99.90
2019-02-14T20:49:15.803Z,99.90
2019-02-14T20:51:45.210Z,99.90
2019-02-14T20:54:14.645Z,99.90
2019-02-14T20:56:44.001Z,99.90
2019-02-14T20:59:13.445Z,99.90
2019-02-14T21:01:42.849Z,99.90
2019-02-14T21:04:12.246Z,99.90
2019-02-14T21:06:41.640Z,99.90
2019-02-14T21:09:11.286Z,99.90
2019-02-14T21:11:40.585Z,99.90
2019-02-14T21:14:09.925Z,99.90
2019-02-14T21:16:39.226Z,99.90
2019-02-14T21:19:08.570Z,99.90
2019-02-14T21:21:37.940Z,99.90
2019-02-14T21:24:07.379Z,99.90
2019-02-14T21:26:36.905Z,99.90
2019-02-14T21:29:06.406Z,99.90
2019-02-14T21:31:35.871Z,99.90
2019-02-14T21:34:05.412Z,99.90
2019-02-14T21:36:34.862Z,99.90
2019-02-14T21:39:05.682Z,99.90
2019-02-14T21:41:35.064Z,99.90
2019-02-14T21:44:04.884Z,99.90
2019-02-14T21:46:34.475Z,99.90
2019-02-14T21:49:03.995Z,99.90
2019-02-14T21:51:33.436Z,99.90
2019-02-14T21:54:02.987Z,99.90
2019-02-14T21:56:32.539Z,99.90
2019-02-14T21:59:02.936Z,99.90
2019-02-14T22:01:32.418Z,99.90
2019-02-14T22:04:02.352Z,99.90
2019-02-14T22:06:31.799Z,99.90
2019-02-14T22:11:36.137Z,99.90
2019-02-14T22:14:06.409Z,99.90
2019-02-14T22:16:35.803Z,99.90
2019-02-14T22:19:05.254Z,99.90
2019-02-14T22:21:34.741Z,99.90
2019-02-14T22:24:04.258Z,99.90
2019-02-14T22:26:33.796Z,99.90
2019-02-14T22:29:03.345Z,99.90
2019-02-14T22:31:32.793Z,99.90
2019-02-14T22:34:02.872Z,99.90
2019-02-14T22:36:32.300Z,99.90
2019-02-14T22:39:03.542Z,99.90
2019-02-14T22:41:32.991Z,99.90
2019-02-14T22:44:03.157Z,99.90
2019-02-14T22:46:32.662Z,99.90
2019-02-14T22:49:02.967Z,99.90
2019-02-14T22:51:32.395Z,99.90
2019-02-14T22:54:01.933Z,99.90
2019-02-14T22:56:31.345Z,99.90
2019-02-14T22:59:00.795Z,99.90
2019-02-14T23:01:30.206Z,99.90
2019-02-14T23:03:59.614Z,99.90
2019-02-14T23:06:29.809Z,99.90
2019-02-14T23:08:59.241Z,99.90
2019-02-14T23:11:28.729Z,99.90
2019-02-14T23:13:58.144Z,99.90
2019-02-14T23:16:27.634Z,99.90
2019-02-14T23:18:57.091Z,99.90
2019-02-14T23:21:26.587Z,99.90
2019-02-14T23:23:56.023Z,99.90
2019-02-14T23:26:25.585Z,99.90
2019-02-14T23:28:55.057Z,99.90
2019-02-14T23:31:24.542Z,99.90
2019-02-14T23:33:54.051Z,99.90
2019-02-14T23:36:24.771Z,99.90
2019-02-14T23:38:54.163Z,99.90
2019-02-14T23:41:23.658Z,99.90
2019-02-14T23:43:53.077Z,99.90
2019-02-14T23:46:22.623Z,99.90
2019-02-14T23:48:52.123Z,99.90
2019-02-14T23:51:21.677Z,99.90
2019-02-14T23:53:51.073Z,99.90
2019-02-14T23:56:20.527Z,99.90
2019-02-14T23:58:50.034Z,99.90
